createdAt,value
2017-11-27T00:01:55.795Z,73.19
2017-11-27T00:04:24.238Z,73.64
2017-11-27T00:06:52.565Z,73.09
2017-11-27T00:09:20.128Z,73.46
2017-11-27T00:11:47.582Z,73.51
2017-11-27T00:14:15.412Z,73.09
2017-11-27T00:16:42.928Z,72.88
2017-11-27T00:19:10.405Z,73.22
2017-11-27T00:21:37.923Z,73.50
2017-11-27T00:24:05.643Z,73.62
2017-11-27T00:26:33.650Z,73.78
2017-11-27T00:29:01.098Z,73.98
2017-11-27T00:31:28.564Z,73.81
2017-11-27T00:33:56.137Z,73.88
2017-11-27T00:36:23.618Z,74.08
2017-11-27T00:38:51.078Z,73.92
2017-11-27T00:41:18.524Z,73.71
2017-11-27T00:43:45.991Z,73.86
2017-11-27T00:46:13.489Z,73.33
2017-11-27T00:48:40.938Z,73.63
2017-11-27T00:51:08.414Z,73.77
2017-11-27T00:53:35.873Z,73.65
2017-11-27T00:56:03.362Z,73.39
2017-11-27T00:58:30.826Z,73.63
2017-11-27T01:00:58.361Z,73.31
2017-11-27T01:03:25.825Z,73.10
2017-11-27T01:05:53.304Z,73.55
2017-11-27T01:08:20.888Z,73.50
2017-11-27T01:10:48.482Z,73.64
2017-11-27T01:13:15.956Z,74.18
2017-11-27T01:15:43.398Z,74.13
2017-11-27T01:18:11.009Z,73.79
2017-11-27T01:20:38.461Z,73.70
2017-11-27T01:23:05.929Z,73.43
2017-11-27T01:25:33.384Z,73.66
2017-11-27T01:28:00.844Z,73.40
2017-11-27T01:30:28.649Z,73.74
2017-11-27T01:32:56.137Z,73.66
2017-11-27T01:35:23.592Z,73.96
2017-11-27T01:37:51.134Z,73.68
2017-11-27T01:40:18.553Z,72.90
2017-11-27T01:42:47.809Z,72.54
2017-11-27T01:45:16.441Z,72.77
2017-11-27T01:47:43.955Z,73.39
2017-11-27T01:50:11.440Z,73.45
2017-11-27T01:52:39.345Z,73.15
2017-11-27T01:55:06.825Z,73.12
2017-11-27T01:57:34.331Z,73.51
2017-11-27T02:00:01.789Z,73.02
2017-11-27T02:02:29.234Z,73.12
2017-11-27T02:04:56.738Z,73.10
2017-11-27T02:07:24.184Z,73.48
2017-11-27T02:09:51.645Z,73.40
2017-11-27T02:12:19.138Z,73.62
2017-11-27T02:14:46.597Z,73.43
2017-11-27T02:17:14.040Z,73.65
2017-11-27T02:19:41.514Z,73.64
2017-11-27T02:22:08.973Z,73.23
2017-11-27T02:24:36.469Z,73.33
2017-11-27T02:27:03.945Z,73.50
2017-11-27T02:29:31.392Z,73.22
2017-11-27T02:31:58.858Z,73.40
2017-11-27T02:34:26.346Z,73.76
2017-11-27T02:36:55.780Z,73.95
2017-11-27T02:39:23.254Z,73.63
2017-11-27T02:41:50.709Z,73.84
2017-11-27T02:44:18.266Z,74.04
2017-11-27T02:46:45.804Z,74.41
2017-11-27T02:49:13.276Z,74.44
2017-11-27T02:51:40.717Z,74.43
2017-11-27T02:54:08.184Z,74.53
2017-11-27T02:56:37.318Z,74.56
2017-11-27T02:59:04.782Z,74.49
2017-11-27T03:01:32.334Z,74.09
2017-11-27T03:03:59.819Z,74.18
2017-11-27T03:06:27.509Z,74.23
2017-11-27T03:08:54.985Z,74.47
2017-11-27T03:11:22.451Z,74.74
2017-11-27T03:13:49.937Z,74.52
2017-11-27T03:16:17.372Z,74.47
2017-11-27T03:18:44.864Z,74.26
2017-11-27T03:21:12.335Z,73.83
2017-11-27T03:23:39.806Z,74.01
2017-11-27T03:26:07.286Z,73.76
2017-11-27T03:28:35.567Z,73.89
2017-11-27T03:31:03.135Z,73.70
2017-11-27T03:33:30.595Z,73.56
2017-11-27T03:35:58.071Z,73.54
2017-11-27T03:38:25.504Z,73.82
2017-11-27T03:40:52.965Z,74.02
2017-11-27T03:43:20.415Z,74.30
2017-11-27T03:45:47.973Z,74.76
2017-11-27T03:48:15.437Z,74.66
2017-11-27T03:50:42.895Z,74.35
2017-11-27T03:53:10.339Z,74.50
2017-11-27T03:55:37.828Z,74.91
2017-11-27T03:58:05.291Z,74.80
2017-11-27T04:00:35.650Z,74.77
2017-11-27T04:03:03.128Z,75.03
2017-11-27T04:05:30.611Z,74.83
2017-11-27T04:07:58.093Z,74.91
2017-11-27T04:10:25.580Z,74.76
2017-11-27T04:12:53.045Z,74.69
2017-11-27T04:15:20.500Z,74.83
2017-11-27T04:17:48.142Z,75.11
2017-11-27T04:20:15.873Z,75.30
2017-11-27T04:22:43.340Z,75.25
2017-11-27T04:25:10.825Z,74.91
2017-11-27T04:27:38.275Z,74.97
2017-11-27T04:30:05.820Z,75.24
2017-11-27T04:32:33.948Z,75.50
2017-11-27T04:35:01.441Z,75.55
2017-11-27T04:37:28.918Z,75.49
2017-11-27T04:39:56.372Z,75.68
2017-11-27T04:42:23.848Z,75.69
2017-11-27T04:44:51.302Z,75.75
2017-11-27T04:47:18.769Z,75.59
2017-11-27T04:49:46.240Z,75.54
2017-11-27T04:52:13.805Z,75.31
2017-11-27T04:54:41.256Z,75.23
2017-11-27T04:57:08.712Z,74.82
2017-11-27T04:59:36.191Z,75.02
2017-11-27T05:02:03.632Z,75.01
2017-11-27T05:04:31.475Z,74.84
2017-11-27T05:06:59.035Z,74.66
2017-11-27T05:09:26.505Z,74.76
2017-11-27T05:11:53.958Z,74.33
2017-11-27T05:14:21.433Z,74.70
2017-11-27T05:16:48.929Z,74.48
2017-11-27T05:19:16.424Z,74.43
2017-11-27T05:21:43.872Z,74.44
2017-11-27T05:24:11.325Z,74.56
2017-11-27T05:26:39.109Z,74.07
2017-11-27T05:29:06.600Z,74.21
2017-11-27T05:31:34.052Z,73.58
2017-11-27T05:34:01.505Z,73.65
2017-11-27T05:36:29.049Z,73.75
2017-11-27T05:38:56.504Z,73.28
2017-11-27T05:41:23.969Z,73.47
2017-11-27T05:43:51.476Z,73.55
2017-11-27T05:46:19.101Z,73.32
2017-11-27T05:48:46.585Z,73.18
2017-11-27T05:51:14.048Z,73.34
2017-11-27T05:53:41.513Z,73.24
2017-11-27T05:56:08.989Z,73.62
2017-11-27T05:58:36.449Z,73.45
2017-11-27T06:01:03.909Z,73.66
2017-11-27T06:03:31.356Z,73.70
2017-11-27T06:05:58.807Z,74.06
2017-11-27T06:08:26.305Z,73.80
2017-11-27T06:10:53.777Z,73.73
2017-11-27T06:13:21.248Z,73.99
2017-11-27T06:15:48.724Z,73.42
2017-11-27T06:18:16.190Z,73.65
2017-11-27T06:20:43.645Z,73.63
2017-11-27T06:23:11.135Z,73.71
2017-11-27T06:25:38.585Z,73.91
2017-11-27T06:28:06.045Z,73.59
2017-11-27T06:30:33.516Z,73.75
2017-11-27T06:33:00.964Z,73.90
2017-11-27T06:35:28.428Z,73.88
2017-11-27T06:37:55.873Z,73.95
2017-11-27T06:40:23.328Z,74.07
2017-11-27T06:42:50.949Z,74.33
2017-11-27T06:45:18.461Z,74.41
2017-11-27T06:47:45.904Z,74.76
2017-11-27T06:50:13.455Z,74.94
2017-11-27T06:52:41.075Z,75.04
2017-11-27T06:55:08.564Z,74.66
2017-11-27T06:57:36.033Z,74.61
2017-11-27T07:00:03.526Z,74.58
2017-11-27T07:02:31.210Z,74.39
2017-11-27T07:04:58.665Z,74.23
2017-11-27T07:07:26.128Z,74.18
2017-11-27T07:09:53.612Z,73.96
2017-11-27T07:12:21.053Z,73.69
2017-11-27T07:14:48.508Z,73.42
2017-11-27T07:17:16.013Z,73.17
2017-11-27T07:19:43.454Z,72.83
2017-11-27T07:22:11.100Z,72.37
2017-11-27T07:24:38.553Z,72.01
2017-11-27T07:27:06.016Z,72.06
2017-11-27T07:29:33.490Z,71.62
2017-11-27T07:32:00.939Z,71.39
2017-11-27T07:34:28.413Z,71.51
2017-11-27T07:36:55.882Z,71.21
2017-11-27T07:39:28.870Z,71.24
2017-11-27T07:41:56.350Z,71.11
2017-11-27T07:44:23.812Z,71.04
2017-11-27T07:46:51.272Z,70.72
2017-11-27T07:49:18.766Z,70.41
2017-11-27T07:51:46.248Z,69.96
2017-11-27T07:54:13.701Z,69.75
2017-11-27T07:56:41.181Z,70.47
2017-11-27T07:59:08.629Z,70.57
2017-11-27T08:01:36.093Z,70.29
2017-11-27T08:04:03.586Z,70.07
2017-11-27T08:06:31.145Z,69.82
2017-11-27T08:08:58.590Z,70.06
2017-11-27T08:11:26.077Z,70.09
2017-11-27T08:13:53.557Z,69.42
2017-11-27T08:16:21.008Z,69.03
2017-11-27T08:18:48.730Z,69.37
2017-11-27T08:21:16.510Z,69.22
2017-11-27T08:23:44.012Z,68.86
2017-11-27T08:26:11.520Z,68.68
2017-11-27T08:28:38.989Z,68.45
2017-11-27T08:31:06.452Z,68.55
2017-11-27T08:33:33.918Z,68.57
2017-11-27T08:36:01.373Z,68.66
2017-11-27T08:38:28.850Z,68.32
2017-11-27T08:40:56.354Z,67.52
2017-11-27T08:43:23.800Z,67.53
2017-11-27T08:45:51.338Z,67.17
2017-11-27T08:48:18.901Z,67.26
2017-11-27T08:50:46.365Z,66.71
2017-11-27T08:53:13.848Z,66.96
2017-11-27T08:55:41.328Z,66.42
2017-11-27T08:58:08.777Z,66.27
2017-11-27T09:00:36.242Z,65.54
2017-11-27T09:03:03.728Z,65.36
2017-11-27T09:05:31.262Z,64.96
2017-11-27T09:07:58.694Z,64.92
2017-11-27T09:10:26.149Z,64.54
2017-11-27T09:12:53.692Z,64.58
2017-11-27T09:15:21.230Z,64.34
2017-11-27T09:17:48.712Z,64.74
2017-11-27T09:20:16.181Z,64.37
2017-11-27T09:22:43.810Z,64.22
2017-11-27T09:25:11.294Z,64.20
2017-11-27T09:27:38.740Z,64.20
2017-11-27T09:30:06.237Z,63.98
2017-11-27T09:32:33.712Z,64.24
2017-11-27T09:35:01.161Z,64.09
2017-11-27T09:37:28.641Z,63.40
2017-11-27T09:39:56.118Z,63.16
2017-11-27T09:42:23.588Z,63.24
2017-11-27T09:44:51.101Z,63.37
2017-11-27T09:47:18.573Z,64.03
2017-11-27T09:49:46.044Z,63.34
2017-11-27T09:52:13.519Z,63.49
2017-11-27T09:54:41.033Z,63.68
2017-11-27T09:57:08.514Z,63.59
2017-11-27T09:59:35.972Z,63.56
2017-11-27T10:02:03.426Z,63.47
2017-11-27T10:04:30.897Z,63.17
2017-11-27T10:06:58.509Z,63.31
2017-11-27T10:09:25.952Z,62.59
2017-11-27T10:11:53.429Z,61.98
2017-11-27T10:14:20.881Z,61.79
2017-11-27T10:16:48.346Z,61.59
2017-11-27T10:19:15.809Z,60.78
2017-11-27T10:21:43.249Z,60.92
2017-11-27T10:24:10.714Z,60.83
2017-11-27T10:26:39.767Z,60.19
2017-11-27T10:29:07.237Z,60.37
2017-11-27T10:31:34.697Z,60.54
2017-11-27T10:34:02.210Z,60.26
2017-11-27T10:36:29.993Z,60.15
2017-11-27T10:38:57.490Z,59.37
2017-11-27T10:41:24.953Z,58.99
2017-11-27T10:43:52.413Z,58.14
2017-11-27T10:46:20.349Z,57.53
2017-11-27T10:48:48.252Z,57.03
2017-11-27T10:51:15.903Z,56.77
2017-11-27T10:53:43.448Z,55.68
2017-11-27T10:56:10.911Z,55.81
2017-11-27T10:58:38.563Z,55.43
2017-11-27T11:01:06.089Z,55.43
2017-11-27T11:03:33.556Z,54.35
2017-11-27T11:06:01.014Z,53.81
2017-11-27T11:08:28.561Z,54.01
2017-11-27T11:10:56.125Z,53.41
2017-11-27T11:13:23.690Z,52.81
2017-11-27T11:15:51.173Z,52.86
2017-11-27T11:18:18.635Z,52.29
2017-11-27T11:20:46.140Z,51.92
2017-11-27T11:23:13.587Z,52.18
2017-11-27T11:25:41.039Z,51.97
2017-11-27T11:28:08.496Z,52.96
2017-11-27T11:30:36.012Z,52.55
2017-11-27T11:33:03.473Z,52.17
2017-11-27T11:35:30.972Z,52.00
2017-11-27T11:37:58.426Z,52.21
2017-11-27T11:40:26.573Z,52.75
2017-11-27T11:42:54.027Z,53.16
2017-11-27T11:45:21.490Z,52.76
2017-11-27T11:47:48.986Z,53.15
2017-11-27T11:50:16.506Z,53.62
2017-11-27T11:52:44.013Z,53.53
2017-11-27T11:55:14.320Z,53.21
2017-11-27T11:57:41.827Z,52.92
2017-11-27T12:00:09.294Z,53.66
2017-11-27T12:02:36.766Z,53.64
2017-11-27T12:05:04.241Z,53.17
2017-11-27T12:07:31.700Z,53.06
2017-11-27T12:09:59.165Z,53.55
2017-11-27T12:12:26.817Z,53.87
2017-11-27T12:14:54.304Z,54.22
2017-11-27T12:17:21.784Z,54.87
2017-11-27T12:19:49.322Z,55.60
2017-11-27T12:22:16.977Z,55.84
2017-11-27T12:24:55.981Z,54.86
2017-11-27T12:27:23.460Z,55.75
2017-11-27T12:29:50.915Z,55.92
2017-11-27T12:32:18.650Z,56.43
2017-11-27T12:34:46.112Z,55.58
2017-11-27T12:37:13.597Z,55.29
2017-11-27T12:39:41.081Z,55.58
2017-11-27T12:42:08.555Z,56.28
2017-11-27T12:44:36.945Z,56.80
2017-11-27T12:47:04.400Z,56.49
2017-11-27T12:49:31.836Z,56.92
2017-11-27T12:51:59.322Z,56.96
2017-11-27T12:54:26.980Z,56.58
2017-11-27T12:56:55.296Z,56.24
2017-11-27T12:59:27.725Z,55.54
2017-11-27T13:01:55.178Z,54.60
2017-11-27T13:04:22.660Z,54.64
2017-11-27T13:06:50.211Z,54.17
2017-11-27T13:09:17.799Z,53.80
2017-11-27T13:11:45.237Z,53.34
2017-11-27T13:14:12.696Z,53.13
2017-11-27T13:16:40.188Z,52.44
2017-11-27T13:19:07.639Z,52.78
2017-11-27T13:21:35.096Z,53.44
2017-11-27T13:24:02.548Z,53.57
2017-11-27T13:26:30.017Z,53.07
2017-11-27T13:28:57.591Z,53.29
2017-11-27T13:31:25.053Z,53.72
2017-11-27T13:33:52.508Z,54.71
2017-11-27T13:36:20.019Z,55.23
2017-11-27T13:38:47.574Z,54.98
2017-11-27T13:41:15.046Z,54.85
2017-11-27T13:43:42.528Z,54.35
2017-11-27T13:46:09.999Z,54.71
2017-11-27T13:48:37.455Z,54.88
2017-11-27T13:51:04.949Z,54.27
2017-11-27T13:53:32.401Z,54.09
2017-11-27T13:55:59.883Z,54.08
2017-11-27T13:58:27.325Z,53.81
2017-11-27T14:00:54.788Z,53.62
2017-11-27T14:03:22.276Z,53.38
2017-11-27T14:05:49.738Z,53.37
2017-11-27T14:08:17.279Z,52.36
2017-11-27T14:10:44.743Z,52.42
2017-11-27T14:13:12.257Z,52.84
2017-11-27T14:15:39.767Z,53.08
2017-11-27T14:18:07.233Z,52.50
2017-11-27T14:20:34.817Z,52.23
2017-11-27T14:23:02.411Z,52.11
2017-11-27T14:25:29.866Z,52.00
2017-11-27T14:27:57.428Z,51.95
2017-11-27T14:30:25.153Z,53.45
2017-11-27T14:32:52.614Z,53.74
2017-11-27T14:35:20.088Z,54.56
2017-11-27T14:37:47.528Z,53.84
2017-11-27T14:40:15.148Z,53.42
2017-11-27T14:42:42.706Z,53.49
2017-11-27T14:45:10.161Z,54.12
2017-11-27T14:47:37.627Z,54.98
2017-11-27T14:50:05.086Z,55.60
2017-11-27T14:52:32.854Z,56.08
2017-11-27T14:55:00.318Z,56.41
2017-11-27T14:57:27.812Z,57.21
2017-11-27T14:59:55.269Z,57.89
2017-11-27T15:02:22.766Z,58.26
2017-11-27T15:04:50.251Z,58.81
2017-11-27T15:07:17.762Z,59.03
2017-11-27T15:09:45.254Z,59.48
2017-11-27T15:12:12.759Z,60.13
2017-11-27T15:14:40.242Z,60.39
2017-11-27T15:17:07.736Z,60.90
2017-11-27T15:19:35.209Z,61.27
2017-11-27T15:22:02.709Z,61.53
2017-11-27T15:24:31.582Z,60.74
2017-11-27T15:26:59.065Z,61.02
2017-11-27T15:29:26.553Z,60.78
2017-11-27T15:31:54.061Z,60.81
2017-11-27T15:34:21.610Z,61.15
2017-11-27T15:36:51.308Z,60.66
2017-11-27T15:39:18.917Z,60.88
2017-11-27T15:41:46.426Z,60.71
2017-11-27T15:44:14.177Z,61.63
2017-11-27T15:46:41.686Z,61.07
2017-11-27T15:49:09.232Z,60.66
2017-11-27T15:51:36.739Z,60.57
2017-11-27T15:54:04.332Z,61.37
2017-11-27T15:56:31.803Z,61.29
2017-11-27T15:58:59.295Z,61.24
2017-11-27T16:01:26.805Z,61.05
2017-11-27T16:03:54.346Z,61.17
2017-11-27T16:06:21.881Z,61.20
2017-11-27T16:08:49.343Z,61.84
2017-11-27T16:11:16.855Z,62.32
2017-11-27T16:13:44.838Z,63.07
2017-11-27T16:16:12.313Z,63.78
2017-11-27T16:18:39.771Z,63.86
2017-11-27T16:21:07.262Z,63.88
2017-11-27T16:23:34.745Z,64.06
2017-11-27T16:26:02.831Z,64.72
2017-11-27T16:28:30.397Z,65.02
2017-11-27T16:30:57.917Z,65.20
2017-11-27T16:33:25.402Z,65.54
2017-11-27T16:35:52.920Z,66.00
2017-11-27T16:38:20.391Z,66.22
2017-11-27T16:40:47.857Z,66.54
2017-11-27T16:43:15.356Z,66.99
2017-11-27T16:45:42.829Z,67.35
2017-11-27T16:48:11.801Z,66.93
2017-11-27T16:50:39.329Z,66.54
2017-11-27T16:53:06.877Z,65.81
2017-11-27T16:55:34.357Z,65.30
2017-11-27T16:58:01.861Z,64.51
2017-11-27T17:00:30.634Z,64.62
2017-11-27T17:02:58.243Z,64.77
2017-11-27T17:05:25.718Z,65.05
2017-11-27T17:07:53.202Z,65.54
2017-11-27T17:10:20.702Z,65.38
2017-11-27T17:12:48.536Z,65.83
2017-11-27T17:15:16.237Z,66.21
2017-11-27T17:17:43.736Z,65.92
2017-11-27T17:20:11.228Z,65.91
2017-11-27T17:22:38.689Z,66.80
2017-11-27T17:25:06.157Z,66.68
2017-11-27T17:27:33.620Z,66.51
2017-11-27T17:30:02.109Z,66.35
2017-11-27T17:32:29.605Z,66.65
2017-11-27T17:34:57.137Z,67.11
2017-11-27T17:37:24.652Z,68.26
2017-11-27T17:39:52.151Z,69.03
2017-11-27T17:42:19.948Z,69.39
2017-11-27T17:44:47.505Z,68.60
2017-11-27T17:47:14.998Z,69.31
2017-11-27T17:49:42.504Z,68.79
2017-11-27T17:52:10.277Z,69.33
2017-11-27T17:54:37.749Z,69.89
2017-11-27T17:57:05.359Z,69.28
2017-11-27T17:59:33.020Z,69.30
2017-11-27T18:02:00.509Z,69.76
2017-11-27T18:04:27.988Z,70.27
2017-11-27T18:06:55.574Z,70.56
2017-11-27T18:09:23.380Z,71.01
2017-11-27T18:11:50.851Z,71.81
2017-11-27T18:14:18.504Z,71.73
2017-11-27T18:16:45.978Z,72.30
2017-11-27T18:19:13.444Z,72.81
2017-11-27T18:21:40.899Z,72.95
2017-11-27T18:24:08.390Z,73.05
2017-11-27T18:26:36.850Z,73.24
2017-11-27T18:29:04.367Z,73.29
2017-11-27T18:31:31.825Z,73.63
2017-11-27T18:33:59.329Z,74.04
2017-11-27T18:36:26.959Z,74.12
2017-11-27T18:38:54.730Z,74.38
2017-11-27T18:41:22.241Z,74.73
2017-11-27T18:43:49.696Z,74.67
2017-11-27T18:46:17.437Z,74.87
2017-11-27T18:48:45.009Z,74.96
2017-11-27T18:51:12.461Z,75.34
2017-11-27T18:53:39.932Z,75.40
2017-11-27T18:56:07.458Z,75.64
2017-11-27T18:58:36.164Z,75.55
2017-11-27T19:01:03.701Z,75.60
2017-11-27T19:03:31.799Z,75.30
2017-11-27T19:05:59.314Z,75.10
2017-11-27T19:08:26.886Z,75.19
2017-11-27T19:10:54.933Z,75.46
2017-11-27T19:13:22.507Z,75.67
2017-11-27T19:15:50.038Z,75.32
2017-11-27T19:18:17.513Z,75.55
2017-11-27T19:20:45.156Z,75.69
2017-11-27T19:23:12.890Z,75.71
2017-11-27T19:25:40.446Z,75.73
2017-11-27T19:28:08.019Z,75.09
2017-11-27T19:30:35.557Z,75.19
2017-11-27T19:33:03.247Z,75.16
2017-11-27T19:35:30.807Z,75.38
2017-11-27T19:37:58.310Z,74.90
2017-11-27T19:40:25.900Z,74.78
2017-11-27T19:42:53.468Z,74.06
2017-11-27T19:45:21.045Z,74.32
2017-11-27T19:47:48.574Z,74.31
2017-11-27T19:50:18.032Z,73.76
2017-11-27T19:52:45.565Z,73.67
2017-11-27T19:55:13.054Z,73.86
2017-11-27T19:57:40.609Z,74.21
2017-11-27T20:00:08.123Z,74.09
2017-11-27T20:02:36.922Z,74.28
2017-11-27T20:05:04.639Z,74.07
2017-11-27T20:07:32.284Z,74.13
2017-11-27T20:09:59.780Z,73.92
2017-11-27T20:12:27.448Z,74.50
2017-11-27T20:14:54.997Z,74.88
2017-11-27T20:17:22.496Z,74.04
2017-11-27T20:19:49.994Z,73.93
2017-11-27T20:22:19.187Z,72.71
2017-11-27T20:24:52.955Z,72.44
2017-11-27T20:27:20.514Z,72.21
2017-11-27T20:29:48.008Z,71.62
2017-11-27T20:32:15.724Z,71.82
2017-11-27T20:34:43.197Z,70.96
2017-11-27T20:37:10.753Z,70.37
2017-11-27T20:39:38.253Z,69.24
2017-11-27T20:42:05.744Z,69.48
2017-11-27T20:44:37.037Z,68.99
2017-11-27T20:47:04.639Z,68.83
2017-11-27T20:49:32.192Z,69.22
2017-11-27T20:51:59.762Z,68.93
2017-11-27T20:54:28.302Z,69.39
2017-11-27T20:56:55.970Z,69.67
2017-11-27T20:59:23.467Z,68.77
2017-11-27T21:01:51.194Z,69.29
2017-11-27T21:04:18.776Z,68.38
2017-11-27T21:06:46.390Z,67.85
2017-11-27T21:09:13.884Z,67.79
2017-11-27T21:11:41.380Z,66.50
2017-11-27T21:14:10.704Z,66.20
2017-11-27T21:16:38.248Z,65.83
2017-11-27T21:21:38.985Z,65.27
2017-11-27T21:24:06.529Z,64.07
2017-11-27T21:26:35.698Z,63.20
2017-11-27T21:29:03.166Z,63.12
2017-11-27T21:31:30.703Z,62.77
2017-11-27T21:33:58.237Z,61.48
2017-11-27T21:36:26.419Z,61.03
2017-11-27T21:38:53.914Z,61.27
2017-11-27T21:41:21.408Z,60.73
2017-11-27T21:43:48.926Z,60.15
2017-11-27T21:46:16.472Z,60.16
2017-11-27T21:48:43.952Z,59.70
2017-11-27T21:51:11.417Z,59.10
2017-11-27T21:53:38.908Z,59.71
2017-11-27T21:56:06.397Z,60.53
2017-11-27T21:58:36.784Z,60.87
2017-11-27T22:01:04.312Z,60.69
2017-11-27T22:03:31.781Z,61.14
2017-11-27T22:05:59.237Z,61.71
2017-11-27T22:08:26.735Z,62.09
2017-11-27T22:10:54.354Z,61.78
2017-11-27T22:13:21.818Z,62.19
2017-11-27T22:15:49.313Z,62.30
2017-11-27T22:18:16.821Z,62.45
2017-11-27T22:20:44.320Z,62.40
2017-11-27T22:23:11.797Z,62.18
2017-11-27T22:25:39.269Z,61.89
2017-11-27T22:28:06.797Z,61.54
2017-11-27T22:30:34.264Z,61.62
2017-11-27T22:33:01.795Z,61.83
2017-11-27T22:35:29.297Z,61.82
2017-11-27T22:37:56.834Z,61.60
2017-11-27T22:40:24.361Z,61.74
2017-11-27T22:42:51.802Z,61.13
2017-11-27T22:45:19.471Z,61.10
2017-11-27T22:47:46.940Z,61.15
2017-11-27T22:50:15.490Z,60.56
2017-11-27T22:52:43.013Z,59.34
2017-11-27T22:55:10.469Z,58.87
2017-11-27T22:57:38.005Z,58.07
2017-11-27T23:00:05.533Z,57.45
2017-11-27T23:02:34.515Z,57.78
2017-11-27T23:05:02.045Z,57.48
2017-11-27T23:07:29.610Z,57.56
2017-11-27T23:09:57.294Z,57.47
2017-11-27T23:12:24.843Z,57.40
2017-11-27T23:14:52.327Z,57.60
2017-11-27T23:17:19.880Z,57.58
2017-11-27T23:19:47.361Z,57.25
2017-11-27T23:22:14.825Z,57.18
2017-11-27T23:24:42.281Z,57.27
2017-11-27T23:27:09.757Z,57.18
2017-11-27T23:29:37.275Z,57.24
2017-11-27T23:32:04.780Z,57.34
2017-11-27T23:34:34.490Z,57.13
2017-11-27T23:37:02.040Z,57.20
2017-11-27T23:39:29.706Z,57.26
2017-11-27T23:41:57.308Z,57.36
2017-11-27T23:44:26.154Z,57.60
2017-11-27T23:46:53.712Z,57.67
2017-11-27T23:49:21.165Z,57.83
2017-11-27T23:51:48.737Z,57.99
2017-11-27T23:54:16.185Z,58.16
2017-11-27T23:56:43.672Z,58.37
2017-11-27T23:59:11.186Z,58.74
